createdAt,value
2022-12-22T00:04:42.788Z,7.52
2022-12-22T00:09:45.649Z,7.49
2022-12-22T00:14:48.094Z,7.46
2022-12-22T00:19:54.972Z,7.46
2022-12-22T00:24:57.805Z,7.48
2022-12-22T00:30:00.581Z,7.48
2022-12-22T00:35:03.197Z,7.46
2022-12-22T00:40:05.677Z,7.43
2022-12-22T00:45:08.130Z,7.45
2022-12-22T00:50:10.677Z,7.5
2022-12-22T00:55:13.386Z,7.47
2022-12-22T01:00:15.886Z,7.48
2022-12-22T01:10:23.892Z,7.5
2022-12-22T01:15:26.511Z,7.49
2022-12-22T01:20:29.076Z,7.54
2022-12-22T01:25:31.824Z,7.51
2022-12-22T01:30:34.559Z,7.53
2022-12-22T01:35:37.266Z,7.57
2022-12-22T01:40:40.011Z,7.54
2022-12-22T01:45:42.608Z,7.5
2022-12-22T01:50:45.160Z,7.49
2022-12-22T01:55:47.998Z,7.47
2022-12-22T02:00:50.776Z,7.49
2022-12-22T02:05:53.573Z,7.49
2022-12-22T02:10:56.019Z,7.49
2022-12-22T02:16:01.540Z,7.5
2022-12-22T02:21:04.181Z,7.51
2022-12-22T02:26:06.821Z,7.54
2022-12-22T02:37:11.829Z,7.61
2022-12-22T02:42:14.314Z,7.55
2022-12-22T02:47:16.686Z,7.57
2022-12-22T02:52:19.272Z,7.62
2022-12-22T02:57:21.801Z,7.63
2022-12-22T03:02:24.594Z,7.68
2022-12-22T03:07:27.185Z,7.68
2022-12-22T03:12:30.072Z,7.7
2022-12-22T03:17:32.421Z,7.71
2022-12-22T03:22:35.262Z,7.68
2022-12-22T03:27:38.118Z,7.77
2022-12-22T03:32:40.766Z,7.8
2022-12-22T03:37:43.382Z,7.78
2022-12-22T03:42:46.064Z,7.8
2022-12-22T03:47:48.687Z,7.79
2022-12-22T03:52:51.337Z,7.83
2022-12-22T04:03:24.027Z,7.87
2022-12-22T04:08:26.452Z,7.86
2022-12-22T04:13:37.552Z,7.81
2022-12-22T04:18:40.612Z,7.87
2022-12-22T04:23:45.667Z,7.93
2022-12-22T04:28:48.711Z,7.96
2022-12-22T04:33:51.273Z,7.99
2022-12-22T04:38:54.017Z,8.06
2022-12-22T04:43:56.805Z,7.97
2022-12-22T04:49:00.370Z,7.97
2022-12-22T04:54:01.865Z,7.95
2022-12-22T04:59:04.587Z,7.95
2022-12-22T05:04:07.241Z,8.03
2022-12-22T05:09:09.929Z,8.03
2022-12-22T05:14:12.369Z,8.1
2022-12-22T05:19:14.808Z,8.1
2022-12-22T05:24:17.380Z,8.15
2022-12-22T05:29:19.867Z,8.18
2022-12-22T05:34:22.387Z,8.16
2022-12-22T05:39:25.089Z,8.19
2022-12-22T05:44:27.803Z,8.23
2022-12-22T05:49:30.511Z,8.26
2022-12-22T05:54:33.094Z,8.33
2022-12-22T05:59:35.771Z,8.31
2022-12-22T06:04:38.416Z,8.41
2022-12-22T06:09:41.180Z,8.45
2022-12-22T06:14:43.868Z,8.45
2022-12-22T06:25:18.627Z,8.59
2022-12-22T06:35:21.759Z,8.54
2022-12-22T06:40:24.635Z,8.54
2022-12-22T06:45:27.304Z,8.54
2022-12-22T06:50:29.915Z,8.6
2022-12-22T06:55:32.598Z,8.7
2022-12-22T07:00:35.271Z,8.77
2022-12-22T07:05:37.981Z,8.83
2022-12-22T07:10:40.773Z,8.82
2022-12-22T07:15:43.272Z,8.72
2022-12-22T07:20:49.003Z,8.69
2022-12-22T07:25:51.902Z,8.62
2022-12-22T07:30:54.377Z,8.68
2022-12-22T07:35:59.874Z,8.7
2022-12-22T07:41:05.122Z,8.66
2022-12-22T07:46:05.049Z,8.72
2022-12-22T07:51:07.715Z,8.74
2022-12-22T07:56:10.458Z,8.78
2022-12-22T08:01:13.075Z,8.77
2022-12-22T08:06:15.801Z,8.81
2022-12-22T08:11:18.432Z,8.82
2022-12-22T08:16:21.255Z,8.77
2022-12-22T08:21:23.654Z,8.83
2022-12-22T08:26:26.439Z,8.91
2022-12-22T08:31:28.745Z,8.95
2022-12-22T08:36:31.435Z,8.99
2022-12-22T08:41:34.067Z,8.99
2022-12-22T08:46:36.928Z,9.01
2022-12-22T08:51:39.666Z,9.08
2022-12-22T08:56:42.299Z,9.02
2022-12-22T09:01:45.225Z,9.08
2022-12-22T09:06:47.808Z,9.06
2022-12-22T09:11:50.557Z,9.1
2022-12-22T09:21:56.165Z,9.19
2022-12-22T09:26:59.021Z,9.23
2022-12-22T09:32:01.818Z,9.24
2022-12-22T09:37:04.605Z,9.26
2022-12-22T09:42:07.179Z,9.27
2022-12-22T09:47:10.026Z,9.27
2022-12-22T09:52:12.687Z,9.35
2022-12-22T09:57:15.351Z,9.41
2022-12-22T10:02:18.002Z,9.36
2022-12-22T10:07:20.688Z,9.41
2022-12-22T10:12:23.539Z,9.47
2022-12-22T10:17:26.227Z,9.52
2022-12-22T10:22:28.996Z,9.59
2022-12-22T10:27:32.455Z,9.6
2022-12-22T10:32:35.106Z,9.68
2022-12-22T10:38:20.852Z,9.86
2022-12-22T10:43:20.621Z,9.85
2022-12-22T10:48:23.192Z,9.86
2022-12-22T10:53:26.126Z,9.96
2022-12-22T10:58:28.695Z,9.95
2022-12-22T11:03:31.757Z,9.9
2022-12-22T11:08:34.317Z,10.1
2022-12-22T11:13:37.198Z,10.1
2022-12-22T11:18:42.808Z,10.29
2022-12-22T11:23:45.606Z,10.29
2022-12-22T11:28:48.316Z,10.27
2022-12-22T11:33:51.004Z,10.29
2022-12-22T11:38:53.613Z,10.21
2022-12-22T11:43:56.315Z,10.07
2022-12-22T11:48:59.232Z,10.11
2022-12-22T11:54:07.114Z,10.16
2022-12-22T11:59:04.813Z,10.24
2022-12-22T12:04:07.433Z,10.27
2022-12-22T12:09:10.118Z,10.34
2022-12-22T12:14:12.984Z,10.24
2022-12-22T12:19:18.147Z,10.25
2022-12-22T12:24:18.617Z,10.11
2022-12-22T12:29:21.467Z,10.19
2022-12-22T12:34:24.112Z,10.15
2022-12-22T12:39:26.691Z,10.06
2022-12-22T12:44:29.497Z,10.24
2022-12-22T12:49:32.098Z,10.26
2022-12-22T12:54:34.691Z,10.3
2022-12-22T12:59:37.404Z,10.14
2022-12-22T13:04:40.027Z,10.11
2022-12-22T13:09:51.358Z,10.16
2022-12-22T13:14:45.576Z,10.24
2022-12-22T13:19:48.376Z,10.28
2022-12-22T13:24:51.000Z,10.25
2022-12-22T13:29:53.716Z,10.19
2022-12-22T13:39:58.870Z,10.22
2022-12-22T13:45:01.289Z,10.13
2022-12-22T13:50:10.947Z,10.12
2022-12-22T13:55:06.255Z,10.11
2022-12-22T14:00:10.084Z,10.12
2022-12-22T14:05:12.142Z,10.1
2022-12-22T14:10:14.729Z,10.13
2022-12-22T14:15:17.385Z,10.11
2022-12-22T14:20:20.189Z,10.13
2022-12-22T14:25:22.935Z,10.11
2022-12-22T14:30:25.557Z,10.09
2022-12-22T14:35:28.169Z,10.08
2022-12-22T14:40:30.906Z,10.02
2022-12-22T14:45:33.567Z,10.06
2022-12-22T14:50:36.096Z,9.99
2022-12-22T14:55:38.615Z,10.02
2022-12-22T15:00:41.318Z,10.05
2022-12-22T15:05:43.882Z,10
2022-12-22T15:10:51.517Z,10.01
2022-12-22T15:15:54.533Z,10.01
2022-12-22T15:20:57.131Z,10.07
2022-12-22T15:26:00.246Z,9.96
2022-12-22T15:31:02.921Z,10.01
2022-12-22T15:36:05.381Z,9.94
2022-12-22T15:41:08.046Z,9.98
2022-12-22T15:46:10.644Z,9.9
2022-12-22T15:51:13.916Z,9.88
2022-12-22T15:56:17.779Z,9.85
2022-12-22T16:01:19.333Z,9.82
2022-12-22T16:06:21.914Z,9.76
2022-12-22T16:11:24.583Z,9.75
2022-12-22T16:16:27.435Z,9.72
2022-12-22T16:21:30.195Z,9.68
2022-12-22T16:26:32.719Z,9.69
2022-12-22T16:37:42.149Z,9.83
2022-12-22T16:43:50.057Z,9.57
2022-12-22T16:47:47.375Z,9.34
2022-12-22T16:52:50.173Z,9.19
2022-12-22T16:57:52.706Z,9.1
2022-12-22T17:07:58.076Z,8.78
2022-12-22T17:13:00.690Z,8.74
2022-12-22T17:18:03.375Z,8.66
2022-12-22T17:23:05.860Z,8.53
2022-12-22T17:28:08.677Z,8.48
2022-12-22T17:33:14.165Z,8.38
2022-12-22T17:38:16.711Z,8.44
2022-12-22T17:43:19.670Z,8.55
2022-12-22T17:53:24.723Z,8.59
2022-12-22T18:03:32.862Z,8.34
2022-12-22T18:08:35.717Z,8.35
2022-12-22T18:13:38.347Z,8.39
2022-12-22T18:18:41.162Z,8.32
2022-12-22T18:28:46.540Z,8.44
2022-12-22T18:38:52.114Z,8.43
2022-12-22T18:43:54.663Z,8.39
2022-12-22T18:49:05.213Z,8.36
2022-12-22T18:54:02.654Z,8.27
2022-12-22T18:59:08.572Z,8.26
2022-12-22T19:09:13.609Z,8.18
2022-12-22T19:14:15.935Z,8.1
2022-12-22T19:19:18.731Z,8.03
2022-12-22T19:24:21.230Z,7.91
2022-12-22T19:29:24.009Z,7.86
2022-12-22T19:34:29.281Z,7.78
2022-12-22T19:39:32.016Z,7.76
2022-12-22T19:49:37.456Z,7.64
2022-12-22T19:54:40.140Z,7.57
2022-12-22T19:59:44.674Z,7.42
2022-12-22T20:04:47.184Z,7.36
2022-12-22T20:09:51.524Z,7.32
2022-12-22T20:14:56.221Z,7.29
2022-12-22T20:25:01.786Z,7.33
2022-12-22T20:35:07.510Z,7.39
2022-12-22T20:40:13.172Z,7.41
2022-12-22T20:45:15.908Z,7.41
2022-12-22T20:50:18.571Z,7.44
2022-12-22T20:55:21.218Z,7.4
2022-12-22T21:05:26.476Z,7.36
2022-12-22T21:10:29.185Z,7.34
2022-12-22T21:15:31.838Z,7.31
2022-12-22T21:20:34.624Z,7.32
2022-12-22T21:25:39.708Z,7.33
2022-12-22T21:30:40.088Z,7.33
2022-12-22T21:35:42.423Z,7.33
2022-12-22T21:40:45.133Z,7.26
2022-12-22T21:45:47.686Z,7.31
2022-12-22T21:50:50.521Z,7.25
2022-12-22T21:55:53.110Z,7.21
2022-12-22T22:00:57.671Z,7.24
2022-12-22T22:06:00.390Z,7.27
2022-12-22T22:11:02.622Z,7.23
2022-12-22T22:16:05.563Z,7.3
2022-12-22T22:21:08.290Z,7.28
2022-12-22T22:26:10.980Z,7.29
2022-12-22T22:31:13.747Z,7.28
2022-12-22T22:36:17.090Z,7.22
2022-12-22T22:41:19.661Z,7.2
2022-12-22T22:46:22.322Z,7.19
2022-12-22T22:51:24.974Z,7.24
2022-12-22T22:56:27.536Z,7.24
2022-12-22T23:01:48.555Z,7.27
2022-12-22T23:06:51.266Z,7.36
2022-12-22T23:11:53.953Z,7.38
2022-12-22T23:16:56.527Z,7.44
2022-12-22T23:21:59.274Z,7.39
2022-12-22T23:27:01.931Z,7.33
2022-12-22T23:32:04.545Z,7.38
2022-12-22T23:37:07.276Z,7.31
2022-12-22T23:42:10.075Z,7.35
2022-12-22T23:47:12.602Z,7.39
2022-12-22T23:52:15.287Z,7.47
2022-12-22T23:57:17.959Z,7.42
